sensor_id;sensor_type;location;lat;lon;timestamp;temperature;humidity
69006;SHT31;56061;51.748;19.620;2022-07-30T00:01:42;18.42;61.26
69006;SHT31;56061;51.748;19.620;2022-07-30T00:04:08;18.39;61.30
69006;SHT31;56061;51.748;19.620;2022-07-30T00:06:35;18.39;61.25
69006;SHT31;56061;51.748;19.620;2022-07-30T00:09:03;18.36;61.37
69006;SHT31;56061;51.748;19.620;2022-07-30T00:11:29;18.36;61.42
69006;SHT31;56061;51.748;19.620;2022-07-30T00:13:56;18.32;61.41
69006;SHT31;56061;51.748;19.620;2022-07-30T00:16:23;18.32;61.54
69006;SHT31;56061;51.748;19.620;2022-07-30T00:18:49;18.30;61.56
69006;SHT31;56061;51.748;19.620;2022-07-30T00:21:17;18.28;61.68
69006;SHT31;56061;51.748;19.620;2022-07-30T00:24:01;18.25;61.75
69006;SHT31;56061;51.748;19.620;2022-07-30T00:26:28;18.24;61.81
69006;SHT31;56061;51.748;19.620;2022-07-30T00:28:55;18.21;61.96
69006;SHT31;56061;51.748;19.620;2022-07-30T00:31:21;18.19;62.08
69006;SHT31;56061;51.748;19.620;2022-07-30T00:33:48;18.15;62.12
69006;SHT31;56061;51.748;19.620;2022-07-30T00:36:14;18.14;62.35
69006;SHT31;56061;51.748;19.620;2022-07-30T00:38:41;18.12;62.41
69006;SHT31;56061;51.748;19.620;2022-07-30T00:41:08;18.11;62.48
69006;SHT31;56061;51.748;19.620;2022-07-30T00:43:35;18.08;62.73
69006;SHT31;56061;51.748;19.620;2022-07-30T00:46:01;18.07;62.78
69006;SHT31;56061;51.748;19.620;2022-07-30T00:48:28;18.05;62.89
69006;SHT31;56061;51.748;19.620;2022-07-30T00:50:55;18.02;62.97
69006;SHT31;56061;51.748;19.620;2022-07-30T00:53:22;18.00;63.18
69006;SHT31;56061;51.748;19.620;2022-07-30T00:55:49;17.96;63.32
69006;SHT31;56061;51.748;19.620;2022-07-30T00:58:15;17.94;63.37
69006;SHT31;56061;51.748;19.620;2022-07-30T01:00:42;17.93;63.52
69006;SHT31;56061;51.748;19.620;2022-07-30T01:03:09;17.92;63.69
69006;SHT31;56061;51.748;19.620;2022-07-30T01:05:36;17.91;63.80
69006;SHT31;56061;51.748;19.620;2022-07-30T01:08:02;17.89;63.83
69006;SHT31;56061;51.748;19.620;2022-07-30T01:10:29;17.88;63.94
69006;SHT31;56061;51.748;19.620;2022-07-30T01:12:55;17.85;63.98
69006;SHT31;56061;51.748;19.620;2022-07-30T01:15:24;17.83;64.17
69006;SHT31;56061;51.748;19.620;2022-07-30T01:17:52;17.80;64.28
69006;SHT31;56061;51.748;19.620;2022-07-30T01:20:25;17.78;64.37
69006;SHT31;56061;51.748;19.620;2022-07-30T01:23:09;17.75;64.45
69006;SHT31;56061;51.748;19.620;2022-07-30T01:26:01;17.73;64.61
69006;SHT31;56061;51.748;19.620;2022-07-30T01:28:34;17.69;64.66
69006;SHT31;56061;51.748;19.620;2022-07-30T01:31:07;17.66;64.74
69006;SHT31;56061;51.748;19.620;2022-07-30T01:33:42;17.64;64.88
69006;SHT31;56061;51.748;19.620;2022-07-30T01:36:14;17.64;65.01
69006;SHT31;56061;51.748;19.620;2022-07-30T01:38:45;17.64;65.13
69006;SHT31;56061;51.748;19.620;2022-07-30T01:41:16;17.64;65.19
69006;SHT31;56061;51.748;19.620;2022-07-30T01:43:44;17.63;65.15
69006;SHT31;56061;51.748;19.620;2022-07-30T01:46:13;17.62;65.15
69006;SHT31;56061;51.748;19.620;2022-07-30T01:48:43;17.61;65.19
69006;SHT31;56061;51.748;19.620;2022-07-30T01:51:12;17.59;65.33
69006;SHT31;56061;51.748;19.620;2022-07-30T01:53:39;17.58;65.45
69006;SHT31;56061;51.748;19.620;2022-07-30T01:56:10;17.55;65.41
69006;SHT31;56061;51.748;19.620;2022-07-30T01:58:42;17.54;65.49
69006;SHT31;56061;51.748;19.620;2022-07-30T02:01:13;17.52;65.41
69006;SHT31;56061;51.748;19.620;2022-07-30T02:03:40;17.51;65.45
69006;SHT31;56061;51.748;19.620;2022-07-30T02:06:09;17.50;65.48
69006;SHT31;56061;51.748;19.620;2022-07-30T02:08:55;17.48;65.63
69006;SHT31;56061;51.748;19.620;2022-07-30T02:11:40;17.45;65.71
69006;SHT31;56061;51.748;19.620;2022-07-30T02:14:33;17.43;65.75
69006;SHT31;56061;51.748;19.620;2022-07-30T02:17:11;17.45;65.80
69006;SHT31;56061;51.748;19.620;2022-07-30T02:19:46;17.48;65.86
69006;SHT31;56061;51.748;19.620;2022-07-30T02:22:18;17.51;65.89
69006;SHT31;56061;51.748;19.620;2022-07-30T02:24:48;17.54;65.90
69006;SHT31;56061;51.748;19.620;2022-07-30T02:27:23;17.57;65.88
69006;SHT31;56061;51.748;19.620;2022-07-30T02:29:54;17.58;65.88
69006;SHT31;56061;51.748;19.620;2022-07-30T02:32:25;17.59;65.88
69006;SHT31;56061;51.748;19.620;2022-07-30T02:34:59;17.61;65.89
69006;SHT31;56061;51.748;19.620;2022-07-30T02:37:35;17.60;65.93
69006;SHT31;56061;51.748;19.620;2022-07-30T02:40:09;17.58;65.95
69006;SHT31;56061;51.748;19.620;2022-07-30T02:42:41;17.57;65.89
69006;SHT31;56061;51.748;19.620;2022-07-30T02:45:12;17.55;66.10
69006;SHT31;56061;51.748;19.620;2022-07-30T02:47:47;17.53;66.17
69006;SHT31;56061;51.748;19.620;2022-07-30T02:50:18;17.52;66.27
69006;SHT31;56061;51.748;19.620;2022-07-30T02:52:47;17.50;66.32
69006;SHT31;56061;51.748;19.620;2022-07-30T02:55:15;17.49;66.37
69006;SHT31;56061;51.748;19.620;2022-07-30T02:57:44;17.48;66.41
69006;SHT31;56061;51.748;19.620;2022-07-30T03:00:13;17.49;66.52
69006;SHT31;56061;51.748;19.620;2022-07-30T03:02:40;17.50;66.56
69006;SHT31;56061;51.748;19.620;2022-07-30T03:05:10;17.51;66.69
69006;SHT31;56061;51.748;19.620;2022-07-30T03:07:39;17.52;66.70
69006;SHT31;56061;51.748;19.620;2022-07-30T03:10:07;17.53;66.72
69006;SHT31;56061;51.748;19.620;2022-07-30T03:12:34;17.53;66.77
69006;SHT31;56061;51.748;19.620;2022-07-30T03:15:03;17.54;66.76
69006;SHT31;56061;51.748;19.620;2022-07-30T03:17:34;17.54;66.75
69006;SHT31;56061;51.748;19.620;2022-07-30T03:20:09;17.54;66.75
69006;SHT31;56061;51.748;19.620;2022-07-30T03:22:42;17.54;66.79
69006;SHT31;56061;51.748;19.620;2022-07-30T03:25:14;17.53;66.87
69006;SHT31;56061;51.748;19.620;2022-07-30T03:27:44;17.53;66.88
69006;SHT31;56061;51.748;19.620;2022-07-30T03:30:13;17.54;66.96
69006;SHT31;56061;51.748;19.620;2022-07-30T03:32:40;17.55;67.03
69006;SHT31;56061;51.748;19.620;2022-07-30T03:35:09;17.58;67.00
69006;SHT31;56061;51.748;19.620;2022-07-30T03:37:42;17.61;67.04
69006;SHT31;56061;51.748;19.620;2022-07-30T03:40:10;17.65;67.04
69006;SHT31;56061;51.748;19.620;2022-07-30T03:42:38;17.69;67.09
69006;SHT31;56061;51.748;19.620;2022-07-30T03:45:06;17.72;67.04
69006;SHT31;56061;51.748;19.620;2022-07-30T03:47:35;17.73;67.09
69006;SHT31;56061;51.748;19.620;2022-07-30T03:50:04;17.74;67.02
69006;SHT31;56061;51.748;19.620;2022-07-30T03:52:36;17.75;67.03
69006;SHT31;56061;51.748;19.620;2022-07-30T03:55:07;17.76;67.10
69006;SHT31;56061;51.748;19.620;2022-07-30T03:57:36;17.77;67.10
69006;SHT31;56061;51.748;19.620;2022-07-30T04:00:04;17.78;67.17
69006;SHT31;56061;51.748;19.620;2022-07-30T04:02:43;17.79;67.25
69006;SHT31;56061;51.748;19.620;2022-07-30T04:05:12;17.80;67.33
69006;SHT31;56061;51.748;19.620;2022-07-30T04:07:40;17.81;67.50
69006;SHT31;56061;51.748;19.620;2022-07-30T04:10:10;17.82;67.60
69006;SHT31;56061;51.748;19.620;2022-07-30T04:12:38;17.83;67.76
69006;SHT31;56061;51.748;19.620;2022-07-30T04:15:04;17.85;67.84
69006;SHT31;56061;51.748;19.620;2022-07-30T04:17:52;17.86;67.89
69006;SHT31;56061;51.748;19.620;2022-07-30T04:20:27;17.86;67.97
69006;SHT31;56061;51.748;19.620;2022-07-30T04:22:59;17.87;68.16
69006;SHT31;56061;51.748;19.620;2022-07-30T04:25:27;17.91;68.33
69006;SHT31;56061;51.748;19.620;2022-07-30T04:27:55;17.96;68.53
69006;SHT31;56061;51.748;19.620;2022-07-30T04:30:28;18.01;68.78
69006;SHT31;56061;51.748;19.620;2022-07-30T04:32:55;18.03;69.17
69006;SHT31;56061;51.748;19.620;2022-07-30T04:35:28;18.02;69.44
69006;SHT31;56061;51.748;19.620;2022-07-30T04:38:17;18.03;69.84
69006;SHT31;56061;51.748;19.620;2022-07-30T04:40:44;18.03;70.00
69006;SHT31;56061;51.748;19.620;2022-07-30T04:43:12;18.03;70.11
69006;SHT31;56061;51.748;19.620;2022-07-30T04:45:39;18.02;70.25
69006;SHT31;56061;51.748;19.620;2022-07-30T04:48:08;18.04;70.52
69006;SHT31;56061;51.748;19.620;2022-07-30T04:50:35;18.03;71.06
69006;SHT31;56061;51.748;19.620;2022-07-30T04:53:07;18.02;71.46
69006;SHT31;56061;51.748;19.620;2022-07-30T04:55:37;18.04;71.83
69006;SHT31;56061;51.748;19.620;2022-07-30T04:58:11;18.10;72.12
69006;SHT31;56061;51.748;19.620;2022-07-30T05:00:41;18.16;72.30
69006;SHT31;56061;51.748;19.620;2022-07-30T05:03:10;18.21;72.47
69006;SHT31;56061;51.748;19.620;2022-07-30T05:05:40;18.28;72.61
69006;SHT31;56061;51.748;19.620;2022-07-30T05:08:08;18.36;72.65
69006;SHT31;56061;51.748;19.620;2022-07-30T05:10:36;18.41;72.65
69006;SHT31;56061;51.748;19.620;2022-07-30T05:13:03;18.45;72.69
69006;SHT31;56061;51.748;19.620;2022-07-30T05:15:35;18.48;72.78
69006;SHT31;56061;51.748;19.620;2022-07-30T05:18:02;18.47;72.87
69006;SHT31;56061;51.748;19.620;2022-07-30T05:20:29;18.46;72.91
69006;SHT31;56061;51.748;19.620;2022-07-30T05:22:57;18.46;72.94
69006;SHT31;56061;51.748;19.620;2022-07-30T05:25:23;18.44;73.13
69006;SHT31;56061;51.748;19.620;2022-07-30T05:27:50;18.43;73.19
69006;SHT31;56061;51.748;19.620;2022-07-30T05:30:17;18.44;73.32
69006;SHT31;56061;51.748;19.620;2022-07-30T05:32:47;18.44;73.38
69006;SHT31;56061;51.748;19.620;2022-07-30T05:35:14;18.46;73.42
69006;SHT31;56061;51.748;19.620;2022-07-30T05:37:42;18.49;73.43
69006;SHT31;56061;51.748;19.620;2022-07-30T05:40:09;18.50;73.42
69006;SHT31;56061;51.748;19.620;2022-07-30T05:42:37;18.52;73.54
69006;SHT31;56061;51.748;19.620;2022-07-30T05:45:04;18.53;73.47
69006;SHT31;56061;51.748;19.620;2022-07-30T05:47:32;18.56;73.60
69006;SHT31;56061;51.748;19.620;2022-07-30T05:49:59;18.59;73.62
69006;SHT31;56061;51.748;19.620;2022-07-30T05:52:30;18.61;73.62
69006;SHT31;56061;51.748;19.620;2022-07-30T05:54:57;18.62;73.66
69006;SHT31;56061;51.748;19.620;2022-07-30T05:57:23;18.65;73.70
69006;SHT31;56061;51.748;19.620;2022-07-30T05:59:50;18.70;73.75
69006;SHT31;56061;51.748;19.620;2022-07-30T06:02:17;18.72;73.79
69006;SHT31;56061;51.748;19.620;2022-07-30T06:04:49;18.76;73.78
69006;SHT31;56061;51.748;19.620;2022-07-30T06:07:16;18.80;73.86
69006;SHT31;56061;51.748;19.620;2022-07-30T06:09:42;18.84;73.96
69006;SHT31;56061;51.748;19.620;2022-07-30T06:12:09;18.91;73.99
69006;SHT31;56061;51.748;19.620;2022-07-30T06:14:36;18.96;73.92
69006;SHT31;56061;51.748;19.620;2022-07-30T06:17:03;19.02;73.76
69006;SHT31;56061;51.748;19.620;2022-07-30T06:19:29;19.08;73.66
69006;SHT31;56061;51.748;19.620;2022-07-30T06:21:56;19.12;73.60
69006;SHT31;56061;51.748;19.620;2022-07-30T06:24:32;19.17;73.56
69006;SHT31;56061;51.748;19.620;2022-07-30T06:26:59;19.22;73.56
69006;SHT31;56061;51.748;19.620;2022-07-30T06:29:28;19.29;73.45
69006;SHT31;56061;51.748;19.620;2022-07-30T06:31:55;19.37;73.35
69006;SHT31;56061;51.748;19.620;2022-07-30T06:34:21;19.43;73.18
69006;SHT31;56061;51.748;19.620;2022-07-30T06:36:48;19.45;73.08
69006;SHT31;56061;51.748;19.620;2022-07-30T06:39:15;19.51;73.10
69006;SHT31;56061;51.748;19.620;2022-07-30T06:42:02;19.53;72.91
69006;SHT31;56061;51.748;19.620;2022-07-30T06:44:29;19.54;72.81
69006;SHT31;56061;51.748;19.620;2022-07-30T06:46:55;19.55;72.79
69006;SHT31;56061;51.748;19.620;2022-07-30T06:49:22;19.58;72.90
69006;SHT31;56061;51.748;19.620;2022-07-30T06:51:49;19.64;72.83
69006;SHT31;56061;51.748;19.620;2022-07-30T06:54:16;19.64;72.68
69006;SHT31;56061;51.748;19.620;2022-07-30T06:56:43;19.65;72.78
69006;SHT31;56061;51.748;19.620;2022-07-30T06:59:09;19.68;72.86
69006;SHT31;56061;51.748;19.620;2022-07-30T07:01:36;19.70;72.73
69006;SHT31;56061;51.748;19.620;2022-07-30T07:04:02;19.73;72.71
69006;SHT31;56061;51.748;19.620;2022-07-30T07:06:30;19.77;72.86
69006;SHT31;56061;51.748;19.620;2022-07-30T07:08:57;19.81;72.75
69006;SHT31;56061;51.748;19.620;2022-07-30T07:11:24;19.86;72.69
69006;SHT31;56061;51.748;19.620;2022-07-30T07:13:50;19.91;72.54
69006;SHT31;56061;51.748;19.620;2022-07-30T07:16:17;19.98;72.48
69006;SHT31;56061;51.748;19.620;2022-07-30T07:18:47;20.06;72.46
69006;SHT31;56061;51.748;19.620;2022-07-30T07:21:20;20.15;72.45
69006;SHT31;56061;51.748;19.620;2022-07-30T07:23:47;20.26;72.21
69006;SHT31;56061;51.748;19.620;2022-07-30T07:26:14;20.35;71.99
69006;SHT31;56061;51.748;19.620;2022-07-30T07:28:41;20.47;71.75
69006;SHT31;56061;51.748;19.620;2022-07-30T07:31:08;20.53;71.52
69006;SHT31;56061;51.748;19.620;2022-07-30T07:33:57;20.66;71.29
69006;SHT31;56061;51.748;19.620;2022-07-30T07:36:23;20.80;71.34
69006;SHT31;56061;51.748;19.620;2022-07-30T07:38:50;20.97;70.87
69006;SHT31;56061;51.748;19.620;2022-07-30T07:41:16;21.10;70.41
69006;SHT31;56061;51.748;19.620;2022-07-30T07:43:44;21.22;70.15
69006;SHT31;56061;51.748;19.620;2022-07-30T07:46:10;21.36;69.91
69006;SHT31;56061;51.748;19.620;2022-07-30T07:48:42;21.46;69.62
69006;SHT31;56061;51.748;19.620;2022-07-30T07:51:10;21.49;69.28
69006;SHT31;56061;51.748;19.620;2022-07-30T07:53:36;21.51;69.39
69006;SHT31;56061;51.748;19.620;2022-07-30T07:56:04;21.52;69.29
69006;SHT31;56061;51.748;19.620;2022-07-30T07:58:34;21.51;69.22
69006;SHT31;56061;51.748;19.620;2022-07-30T08:01:03;21.48;69.43
69006;SHT31;56061;51.748;19.620;2022-07-30T08:03:30;21.42;69.60
69006;SHT31;56061;51.748;19.620;2022-07-30T08:05:56;21.30;69.87
69006;SHT31;56061;51.748;19.620;2022-07-30T08:08:31;21.11;70.41
69006;SHT31;56061;51.748;19.620;2022-07-30T08:10:58;20.88;70.90
69006;SHT31;56061;51.748;19.620;2022-07-30T08:13:24;20.68;71.37
69006;SHT31;56061;51.748;19.620;2022-07-30T08:16:11;20.48;72.09
69006;SHT31;56061;51.748;19.620;2022-07-30T08:18:41;20.23;72.91
69006;SHT31;56061;51.748;19.620;2022-07-30T08:21:07;19.97;74.05
69006;SHT31;56061;51.748;19.620;2022-07-30T08:23:34;19.72;74.72
69006;SHT31;56061;51.748;19.620;2022-07-30T08:26:07;19.46;75.22
69006;SHT31;56061;51.748;19.620;2022-07-30T08:28:37;19.25;76.49
69006;SHT31;56061;51.748;19.620;2022-07-30T08:31:04;19.07;76.76
69006;SHT31;56061;51.748;19.620;2022-07-30T08:33:31;18.94;77.20
69006;SHT31;56061;51.748;19.620;2022-07-30T08:35:57;18.86;77.67
69006;SHT31;56061;51.748;19.620;2022-07-30T08:38:35;18.73;77.87
69006;SHT31;56061;51.748;19.620;2022-07-30T08:41:01;18.63;78.22
69006;SHT31;56061;51.748;19.620;2022-07-30T08:43:29;18.53;78.53
69006;SHT31;56061;51.748;19.620;2022-07-30T08:45:56;18.40;78.92
69006;SHT31;56061;51.748;19.620;2022-07-30T08:48:25;18.33;79.33
69006;SHT31;56061;51.748;19.620;2022-07-30T08:50:53;18.27;79.57
69006;SHT31;56061;51.748;19.620;2022-07-30T08:53:20;18.23;79.76
69006;SHT31;56061;51.748;19.620;2022-07-30T08:55:49;18.21;80.14
69006;SHT31;56061;51.748;19.620;2022-07-30T08:58:22;18.19;80.35
69006;SHT31;56061;51.748;19.620;2022-07-30T09:00:56;18.22;80.64
69006;SHT31;56061;51.748;19.620;2022-07-30T09:03:23;18.30;80.80
69006;SHT31;56061;51.748;19.620;2022-07-30T09:05:50;18.42;80.96
69006;SHT31;56061;51.748;19.620;2022-07-30T09:08:17;18.59;80.94
69006;SHT31;56061;51.748;19.620;2022-07-30T09:10:46;18.78;80.98
69006;SHT31;56061;51.748;19.620;2022-07-30T09:13:28;18.98;80.65
69006;SHT31;56061;51.748;19.620;2022-07-30T09:16:00;19.18;80.55
69006;SHT31;56061;51.748;19.620;2022-07-30T09:18:46;19.33;80.00
69006;SHT31;56061;51.748;19.620;2022-07-30T09:21:22;19.51;79.86
69006;SHT31;56061;51.748;19.620;2022-07-30T09:24:01;19.69;79.49
69006;SHT31;56061;51.748;19.620;2022-07-30T09:26:31;19.92;79.15
69006;SHT31;56061;51.748;19.620;2022-07-30T09:29:21;20.11;78.57
69006;SHT31;56061;51.748;19.620;2022-07-30T09:31:52;20.27;78.45
69006;SHT31;56061;51.748;19.620;2022-07-30T09:34:35;20.44;78.06
69006;SHT31;56061;51.748;19.620;2022-07-30T09:37:06;20.54;77.57
69006;SHT31;56061;51.748;19.620;2022-07-30T09:39:45;20.60;77.14
69006;SHT31;56061;51.748;19.620;2022-07-30T09:42:25;20.58;77.00
69006;SHT31;56061;51.748;19.620;2022-07-30T09:45:07;20.57;76.88
69006;SHT31;56061;51.748;19.620;2022-07-30T09:47:41;20.53;77.09
69006;SHT31;56061;51.748;19.620;2022-07-30T09:50:11;20.53;77.19
69006;SHT31;56061;51.748;19.620;2022-07-30T09:53:03;20.56;77.34
69006;SHT31;56061;51.748;19.620;2022-07-30T09:55:35;20.55;77.07
69006;SHT31;56061;51.748;19.620;2022-07-30T09:58:07;20.51;76.52
69006;SHT31;56061;51.748;19.620;2022-07-30T10:00:41;20.44;76.54
69006;SHT31;56061;51.748;19.620;2022-07-30T10:03:16;20.38;76.45
69006;SHT31;56061;51.748;19.620;2022-07-30T10:05:59;20.31;76.51
69006;SHT31;56061;51.748;19.620;2022-07-30T10:08:42;20.23;76.39
69006;SHT31;56061;51.748;19.620;2022-07-30T10:11:19;20.12;76.43
69006;SHT31;56061;51.748;19.620;2022-07-30T10:13:55;20.04;76.59
69006;SHT31;56061;51.748;19.620;2022-07-30T10:16:25;19.99;77.06
69006;SHT31;56061;51.748;19.620;2022-07-30T10:18:55;19.99;77.07
69006;SHT31;56061;51.748;19.620;2022-07-30T10:21:26;20.02;77.20
69006;SHT31;56061;51.748;19.620;2022-07-30T10:23:57;20.09;77.25
69006;SHT31;56061;51.748;19.620;2022-07-30T10:26:24;20.24;77.15
69006;SHT31;56061;51.748;19.620;2022-07-30T10:28:53;20.29;76.83
69006;SHT31;56061;51.748;19.620;2022-07-30T10:31:21;20.25;77.25
69006;SHT31;56061;51.748;19.620;2022-07-30T10:34:12;20.17;77.78
69006;SHT31;56061;51.748;19.620;2022-07-30T10:36:40;20.10;78.05
69006;SHT31;56061;51.748;19.620;2022-07-30T10:39:11;19.99;77.89
69006;SHT31;56061;51.748;19.620;2022-07-30T10:44:49;19.67;78.47
69006;SHT31;56061;51.748;19.620;2022-07-30T10:47:57;19.60;78.96
69006;SHT31;56061;51.748;19.620;2022-07-30T10:50:25;19.59;79.14
69006;SHT31;56061;51.748;19.620;2022-07-30T10:52:58;19.59;79.19
69006;SHT31;56061;51.748;19.620;2022-07-30T10:55:30;19.61;79.39
69006;SHT31;56061;51.748;19.620;2022-07-30T10:58:05;19.70;79.63
69006;SHT31;56061;51.748;19.620;2022-07-30T11:03:18;19.99;79.21
69006;SHT31;56061;51.748;19.620;2022-07-30T11:08:49;20.23;78.92
69006;SHT31;56061;51.748;19.620;2022-07-30T11:14:09;20.24;78.60
69006;SHT31;56061;51.748;19.620;2022-07-30T11:24:55;21.02;78.06
69006;SHT31;56061;51.748;19.620;2022-07-30T11:27:41;21.29;77.74
69006;SHT31;56061;51.748;19.620;2022-07-30T11:32:42;21.71;76.56
69006;SHT31;56061;51.748;19.620;2022-07-30T11:35:19;21.80;76.69
69006;SHT31;56061;51.748;19.620;2022-07-30T11:37:59;21.80;76.29
69006;SHT31;56061;51.748;19.620;2022-07-30T11:40:34;21.77;76.27
69006;SHT31;56061;51.748;19.620;2022-07-30T11:43:14;21.72;75.78
69006;SHT31;56061;51.748;19.620;2022-07-30T11:46:08;21.62;75.61
69006;SHT31;56061;51.748;19.620;2022-07-30T11:48:43;21.58;75.85
69006;SHT31;56061;51.748;19.620;2022-07-30T11:51:24;21.62;75.86
69006;SHT31;56061;51.748;19.620;2022-07-30T11:53:59;21.70;76.07
69006;SHT31;56061;51.748;19.620;2022-07-30T11:56:30;21.72;75.43
69006;SHT31;56061;51.748;19.620;2022-07-30T11:59:03;21.63;75.37
69006;SHT31;56061;51.748;19.620;2022-07-30T12:01:32;21.52;75.58
69006;SHT31;56061;51.748;19.620;2022-07-30T12:04:01;21.41;75.69
69006;SHT31;56061;51.748;19.620;2022-07-30T12:06:30;21.28;75.64
69006;SHT31;56061;51.748;19.620;2022-07-30T12:08:58;21.15;75.90
69006;SHT31;56061;51.748;19.620;2022-07-30T12:11:32;21.01;76.19
69006;SHT31;56061;51.748;19.620;2022-07-30T12:14:02;20.90;76.42
69006;SHT31;56061;51.748;19.620;2022-07-30T12:16:30;20.77;76.63
69006;SHT31;56061;51.748;19.620;2022-07-30T12:19:01;20.67;76.88
69006;SHT31;56061;51.748;19.620;2022-07-30T12:21:31;20.60;77.16
69006;SHT31;56061;51.748;19.620;2022-07-30T12:24:00;20.57;77.37
69006;SHT31;56061;51.748;19.620;2022-07-30T12:26:33;20.61;77.29
69006;SHT31;56061;51.748;19.620;2022-07-30T12:29:01;20.63;77.35
69006;SHT31;56061;51.748;19.620;2022-07-30T12:31:35;20.62;77.40
69006;SHT31;56061;51.748;19.620;2022-07-30T12:34:26;20.60;77.41
69006;SHT31;56061;51.748;19.620;2022-07-30T12:36:53;20.56;77.60
69006;SHT31;56061;51.748;19.620;2022-07-30T12:39:21;20.54;77.65
69006;SHT31;56061;51.748;19.620;2022-07-30T12:41:51;20.52;77.73
69006;SHT31;56061;51.748;19.620;2022-07-30T12:49:54;20.37;77.79
69006;SHT31;56061;51.748;19.620;2022-07-30T12:52:27;20.31;77.86
69006;SHT31;56061;51.748;19.620;2022-07-30T12:57:49;20.27;78.26
69006;SHT31;56061;51.748;19.620;2022-07-30T13:00:53;20.22;78.28
69006;SHT31;56061;51.748;19.620;2022-07-30T13:03:21;20.18;78.28
69006;SHT31;56061;51.748;19.620;2022-07-30T13:05:52;20.16;78.25
69006;SHT31;56061;51.748;19.620;2022-07-30T13:11:17;20.18;78.40
69006;SHT31;56061;51.748;19.620;2022-07-30T13:14:02;20.17;78.31
69006;SHT31;56061;51.748;19.620;2022-07-30T13:16:30;20.14;78.44
69006;SHT31;56061;51.748;19.620;2022-07-30T13:18:59;20.12;78.56
69006;SHT31;56061;51.748;19.620;2022-07-30T13:21:26;20.08;78.78
69006;SHT31;56061;51.748;19.620;2022-07-30T13:23:54;20.03;78.84
69006;SHT31;56061;51.748;19.620;2022-07-30T13:26:20;19.96;78.97
69006;SHT31;56061;51.748;19.620;2022-07-30T13:28:47;19.86;79.27
69006;SHT31;56061;51.748;19.620;2022-07-30T13:31:13;19.78;79.74
69006;SHT31;56061;51.748;19.620;2022-07-30T13:33:40;19.68;79.93
69006;SHT31;56061;51.748;19.620;2022-07-30T13:36:07;19.57;80.41
69006;SHT31;56061;51.748;19.620;2022-07-30T13:38:34;19.48;80.83
69006;SHT31;56061;51.748;19.620;2022-07-30T13:41:02;19.34;81.05
69006;SHT31;56061;51.748;19.620;2022-07-30T13:43:30;19.23;81.38
69006;SHT31;56061;51.748;19.620;2022-07-30T13:45:59;19.13;81.87
69006;SHT31;56061;51.748;19.620;2022-07-30T13:48:28;19.07;82.17
69006;SHT31;56061;51.748;19.620;2022-07-30T13:50:55;18.99;82.41
69006;SHT31;56061;51.748;19.620;2022-07-30T13:53:22;18.95;82.61
69006;SHT31;56061;51.748;19.620;2022-07-30T13:55:48;18.92;82.92
69006;SHT31;56061;51.748;19.620;2022-07-30T13:58:15;18.89;83.08
69006;SHT31;56061;51.748;19.620;2022-07-30T14:00:42;18.88;83.16
69006;SHT31;56061;51.748;19.620;2022-07-30T14:03:10;18.84;83.36
69006;SHT31;56061;51.748;19.620;2022-07-30T14:05:37;18.81;83.51
69006;SHT31;56061;51.748;19.620;2022-07-30T14:08:08;18.82;83.75
69006;SHT31;56061;51.748;19.620;2022-07-30T14:10:36;18.82;83.74
69006;SHT31;56061;51.748;19.620;2022-07-30T14:13:05;18.82;83.73
69006;SHT31;56061;51.748;19.620;2022-07-30T14:15:33;18.83;83.81
69006;SHT31;56061;51.748;19.620;2022-07-30T14:18:00;18.82;83.91
69006;SHT31;56061;51.748;19.620;2022-07-30T14:20:27;18.80;83.97
69006;SHT31;56061;51.748;19.620;2022-07-30T14:22:55;18.78;83.91
69006;SHT31;56061;51.748;19.620;2022-07-30T14:25:22;18.75;84.01
69006;SHT31;56061;51.748;19.620;2022-07-30T14:27:49;18.74;84.05
69006;SHT31;56061;51.748;19.620;2022-07-30T14:30:16;18.74;84.21
69006;SHT31;56061;51.748;19.620;2022-07-30T14:32:43;18.75;84.24
69006;SHT31;56061;51.748;19.620;2022-07-30T14:35:10;18.75;84.28
69006;SHT31;56061;51.748;19.620;2022-07-30T14:37:37;18.76;84.37
69006;SHT31;56061;51.748;19.620;2022-07-30T14:40:05;18.76;84.38
69006;SHT31;56061;51.748;19.620;2022-07-30T14:42:37;18.75;84.44
69006;SHT31;56061;51.748;19.620;2022-07-30T14:45:06;18.73;84.37
69006;SHT31;56061;51.748;19.620;2022-07-30T14:47:35;18.70;84.49
69006;SHT31;56061;51.748;19.620;2022-07-30T14:50:02;18.66;84.60
69006;SHT31;56061;51.748;19.620;2022-07-30T14:52:29;18.63;84.72
69006;SHT31;56061;51.748;19.620;2022-07-30T14:55:00;18.61;84.79
69006;SHT31;56061;51.748;19.620;2022-07-30T14:57:31;18.59;84.80
69006;SHT31;56061;51.748;19.620;2022-07-30T14:59:58;18.57;84.91
69006;SHT31;56061;51.748;19.620;2022-07-30T15:02:26;18.56;84.87
69006;SHT31;56061;51.748;19.620;2022-07-30T15:04:52;18.55;84.98
69006;SHT31;56061;51.748;19.620;2022-07-30T15:07:19;18.54;85.01
69006;SHT31;56061;51.748;19.620;2022-07-30T15:09:46;18.54;85.06
69006;SHT31;56061;51.748;19.620;2022-07-30T15:12:12;18.53;85.13
69006;SHT31;56061;51.748;19.620;2022-07-30T15:14:52;18.52;85.20
69006;SHT31;56061;51.748;19.620;2022-07-30T15:17:18;18.51;85.28
69006;SHT31;56061;51.748;19.620;2022-07-30T15:19:46;18.52;85.34
69006;SHT31;56061;51.748;19.620;2022-07-30T15:22:16;18.51;85.28
69006;SHT31;56061;51.748;19.620;2022-07-30T15:24:44;18.49;85.32
69006;SHT31;56061;51.748;19.620;2022-07-30T15:27:11;18.47;85.38
69006;SHT31;56061;51.748;19.620;2022-07-30T15:29:38;18.44;85.43
69006;SHT31;56061;51.748;19.620;2022-07-30T15:32:05;18.44;85.54
69006;SHT31;56061;51.748;19.620;2022-07-30T15:34:33;18.41;85.54
69006;SHT31;56061;51.748;19.620;2022-07-30T15:37:00;18.39;85.68
69006;SHT31;56061;51.748;19.620;2022-07-30T15:39:28;18.38;85.88
69006;SHT31;56061;51.748;19.620;2022-07-30T15:41:59;18.36;86.01
69006;SHT31;56061;51.748;19.620;2022-07-30T15:44:27;18.34;86.19
69006;SHT31;56061;51.748;19.620;2022-07-30T15:46:55;18.29;86.24
69006;SHT31;56061;51.748;19.620;2022-07-30T15:49:21;18.26;86.36
69006;SHT31;56061;51.748;19.620;2022-07-30T15:51:48;18.21;86.54
69006;SHT31;56061;51.748;19.620;2022-07-30T15:54:15;18.16;86.63
69006;SHT31;56061;51.748;19.620;2022-07-30T15:56:48;18.13;86.72
69006;SHT31;56061;51.748;19.620;2022-07-30T15:59:17;18.11;86.84
69006;SHT31;56061;51.748;19.620;2022-07-30T16:01:43;18.10;86.92
69006;SHT31;56061;51.748;19.620;2022-07-30T16:04:10;18.10;87.01
69006;SHT31;56061;51.748;19.620;2022-07-30T16:06:45;18.10;87.15
69006;SHT31;56061;51.748;19.620;2022-07-30T16:09:13;18.09;87.07